Stonyford, California
Current Conditions -  °F | °C
As of 4:39 PM on Saturday 20 Dec 2014 (Local Time) from KUKI Reporting Station
Light Rain Light Rain  
Wind Chill: 54°   Ceiling: 2200
Heat Index: 54°   Visibility: 1.2mi
Dew Point: 51°   Wind: 9mph
Humidity: 90%   Direction: 160°SSE
Pressure: 30.16"   Gusts: NA
Location:  39.37°N, 122.55°W
Report Text: KUKI 210039Z AUTO 16008KT 1 1/4SM -RA BR FEW012 OVC022 12/11 A3016 RMK AO2 P0004 T01220106
Loading
Personal Weather Stations






























Interactive Weather Map New forecast layout! Learn more

10-Day Weather Forecast

Advertisements
Track Severe Weather on mobile